sensor_id;sensor_type;location;lat;lon;timestamp;P1;durP1;ratioP1;P2;durP2;ratioP2
53879;SDS011;39791;53.184;5.486;2024-03-22T00:00:14;181.13;;;135.18;;
53879;SDS011;39791;53.184;5.486;2024-03-22T00:02:40;172.82;;;127.43;;
53879;SDS011;39791;53.184;5.486;2024-03-22T00:05:06;169.43;;;123.93;;
53879;SDS011;39791;53.184;5.486;2024-03-22T00:07:31;174.82;;;128.45;;
53879;SDS011;39791;53.184;5.486;2024-03-22T00:09:57;171.45;;;131.23;;
53879;SDS011;39791;53.184;5.486;2024-03-22T00:12:23;172.38;;;127.43;;
53879;SDS011;39791;53.184;5.486;2024-03-22T00:14:48;169.23;;;126.78;;
53879;SDS011;39791;53.184;5.486;2024-03-22T00:17:16;174.50;;;125.15;;
53879;SDS011;39791;53.184;5.486;2024-03-22T00:19:42;180.32;;;140.32;;
53879;SDS011;39791;53.184;5.486;2024-03-22T00:22:07;177.57;;;130.23;;
53879;SDS011;39791;53.184;5.486;2024-03-22T00:24:34;178.30;;;129.10;;
53879;SDS011;39791;53.184;5.486;2024-03-22T00:26:59;176.63;;;128.63;;
53879;SDS011;39791;53.184;5.486;2024-03-22T00:29:25;185.38;;;137.43;;
53879;SDS011;39791;53.184;5.486;2024-03-22T00:31:51;167.63;;;127.55;;
53879;SDS011;39791;53.184;5.486;2024-03-22T00:34:17;173.80;;;124.70;;
53879;SDS011;39791;53.184;5.486;2024-03-22T00:36:42;171.65;;;129.60;;
53879;SDS011;39791;53.184;5.486;2024-03-22T00:39:08;173.27;;;121.72;;
53879;SDS011;39791;53.184;5.486;2024-03-22T00:41:34;180.13;;;134.85;;
53879;SDS011;39791;53.184;5.486;2024-03-22T00:43:59;179.93;;;130.70;;
53879;SDS011;39791;53.184;5.486;2024-03-22T00:46:25;177.63;;;128.57;;
53879;SDS011;39791;53.184;5.486;2024-03-22T00:48:51;172.18;;;126.38;;
53879;SDS011;39791;53.184;5.486;2024-03-22T00:51:17;165.77;;;120.22;;
53879;SDS011;39791;53.184;5.486;2024-03-22T00:53:42;176.52;;;125.30;;
53879;SDS011;39791;53.184;5.486;2024-03-22T00:56:08;174.13;;;117.00;;
53879;SDS011;39791;53.184;5.486;2024-03-22T00:58:34;172.20;;;119.15;;
53879;SDS011;39791;53.184;5.486;2024-03-22T01:00:59;171.00;;;122.85;;
53879;SDS011;39791;53.184;5.486;2024-03-22T01:03:25;177.27;;;128.80;;
53879;SDS011;39791;53.184;5.486;2024-03-22T01:05:51;173.43;;;122.20;;
53879;SDS011;39791;53.184;5.486;2024-03-22T01:08:16;171.40;;;126.72;;
53879;SDS011;39791;53.184;5.486;2024-03-22T01:10:42;181.18;;;133.05;;
53879;SDS011;39791;53.184;5.486;2024-03-22T01:13:08;172.15;;;129.45;;
53879;SDS011;39791;53.184;5.486;2024-03-22T01:15:33;178.13;;;126.28;;
53879;SDS011;39791;53.184;5.486;2024-03-22T01:17:59;171.23;;;122.97;;
53879;SDS011;39791;53.184;5.486;2024-03-22T01:20:24;172.63;;;129.07;;
53879;SDS011;39791;53.184;5.486;2024-03-22T01:22:50;176.27;;;133.00;;
53879;SDS011;39791;53.184;5.486;2024-03-22T01:25:16;181.70;;;131.90;;
53879;SDS011;39791;53.184;5.486;2024-03-22T01:27:42;181.25;;;134.93;;
53879;SDS011;39791;53.184;5.486;2024-03-22T01:30:07;171.35;;;121.78;;
53879;SDS011;39791;53.184;5.486;2024-03-22T01:32:34;174.48;;;125.40;;
53879;SDS011;39791;53.184;5.486;2024-03-22T01:35:02;175.63;;;127.07;;
53879;SDS011;39791;53.184;5.486;2024-03-22T01:37:28;171.00;;;116.28;;
53879;SDS011;39791;53.184;5.486;2024-03-22T01:39:53;176.07;;;124.03;;
53879;SDS011;39791;53.184;5.486;2024-03-22T01:42:19;181.70;;;131.48;;
53879;SDS011;39791;53.184;5.486;2024-03-22T01:44:44;184.20;;;126.00;;
53879;SDS011;39791;53.184;5.486;2024-03-22T01:47:10;183.75;;;132.55;;
53879;SDS011;39791;53.184;5.486;2024-03-22T01:49:36;177.70;;;131.02;;
53879;SDS011;39791;53.184;5.486;2024-03-22T01:52:02;176.65;;;119.97;;
53879;SDS011;39791;53.184;5.486;2024-03-22T01:54:28;174.05;;;121.68;;
53879;SDS011;39791;53.184;5.486;2024-03-22T01:56:55;174.15;;;121.45;;
53879;SDS011;39791;53.184;5.486;2024-03-22T01:59:21;173.27;;;123.55;;
53879;SDS011;39791;53.184;5.486;2024-03-22T02:01:47;181.07;;;123.30;;
53879;SDS011;39791;53.184;5.486;2024-03-22T02:06:49;183.65;;;125.25;;
53879;SDS011;39791;53.184;5.486;2024-03-22T02:09:15;183.45;;;125.13;;
53879;SDS011;39791;53.184;5.486;2024-03-22T02:11:42;181.07;;;123.10;;
53879;SDS011;39791;53.184;5.486;2024-03-22T02:14:08;178.63;;;126.22;;
53879;SDS011;39791;53.184;5.486;2024-03-22T02:16:34;172.43;;;114.72;;
53879;SDS011;39791;53.184;5.486;2024-03-22T02:19:00;185.88;;;121.75;;
53879;SDS011;39791;53.184;5.486;2024-03-22T02:21:25;183.65;;;127.60;;
53879;SDS011;39791;53.184;5.486;2024-03-22T02:23:51;188.18;;;132.43;;
53879;SDS011;39791;53.184;5.486;2024-03-22T02:26:17;173.48;;;119.90;;
53879;SDS011;39791;53.184;5.486;2024-03-22T02:28:42;179.60;;;129.50;;
53879;SDS011;39791;53.184;5.486;2024-03-22T02:31:08;187.43;;;126.32;;
53879;SDS011;39791;53.184;5.486;2024-03-22T02:33:35;176.43;;;118.30;;
53879;SDS011;39791;53.184;5.486;2024-03-22T02:36:01;180.57;;;123.55;;
53879;SDS011;39791;53.184;5.486;2024-03-22T02:38:27;178.20;;;122.88;;
53879;SDS011;39791;53.184;5.486;2024-03-22T02:40:53;182.40;;;116.10;;
53879;SDS011;39791;53.184;5.486;2024-03-22T02:43:19;176.23;;;111.75;;
53879;SDS011;39791;53.184;5.486;2024-03-22T02:45:46;175.70;;;120.30;;
53879;SDS011;39791;53.184;5.486;2024-03-22T02:48:12;185.07;;;122.55;;
53879;SDS011;39791;53.184;5.486;2024-03-22T02:50:38;187.93;;;127.80;;
53879;SDS011;39791;53.184;5.486;2024-03-22T02:53:04;181.00;;;125.03;;
53879;SDS011;39791;53.184;5.486;2024-03-22T02:55:35;182.35;;;128.50;;
53879;SDS011;39791;53.184;5.486;2024-03-22T02:58:02;189.55;;;125.97;;
53879;SDS011;39791;53.184;5.486;2024-03-22T03:00:28;187.57;;;121.20;;
53879;SDS011;39791;53.184;5.486;2024-03-22T03:02:54;180.68;;;117.35;;
53879;SDS011;39791;53.184;5.486;2024-03-22T03:05:19;177.23;;;118.80;;
53879;SDS011;39791;53.184;5.486;2024-03-22T03:07:45;177.38;;;116.78;;
53879;SDS011;39791;53.184;5.486;2024-03-22T03:10:12;182.10;;;114.57;;
53879;SDS011;39791;53.184;5.486;2024-03-22T03:12:38;184.68;;;119.45;;
53879;SDS011;39791;53.184;5.486;2024-03-22T03:15:03;185.65;;;109.00;;
53879;SDS011;39791;53.184;5.486;2024-03-22T03:17:29;182.25;;;116.78;;
53879;SDS011;39791;53.184;5.486;2024-03-22T03:19:55;194.45;;;126.22;;
53879;SDS011;39791;53.184;5.486;2024-03-22T03:22:21;191.82;;;125.55;;
53879;SDS011;39791;53.184;5.486;2024-03-22T03:24:46;170.85;;;113.43;;
53879;SDS011;39791;53.184;5.486;2024-03-22T03:27:12;184.60;;;118.95;;
53879;SDS011;39791;53.184;5.486;2024-03-22T03:29:38;173.02;;;113.13;;
53879;SDS011;39791;53.184;5.486;2024-03-22T03:32:04;170.98;;;104.70;;
53879;SDS011;39791;53.184;5.486;2024-03-22T03:34:30;160.82;;;108.78;;
53879;SDS011;39791;53.184;5.486;2024-03-22T03:36:55;176.63;;;107.45;;
53879;SDS011;39791;53.184;5.486;2024-03-22T03:39:25;158.60;;;100.63;;
53879;SDS011;39791;53.184;5.486;2024-03-22T03:41:51;177.82;;;104.60;;
53879;SDS011;39791;53.184;5.486;2024-03-22T03:44:17;164.55;;;103.22;;
53879;SDS011;39791;53.184;5.486;2024-03-22T03:46:42;165.27;;;107.53;;
53879;SDS011;39791;53.184;5.486;2024-03-22T03:49:08;155.93;;;105.07;;
53879;SDS011;39791;53.184;5.486;2024-03-22T03:51:34;159.93;;;105.30;;
53879;SDS011;39791;53.184;5.486;2024-03-22T03:54:00;163.90;;;108.47;;
53879;SDS011;39791;53.184;5.486;2024-03-22T03:56:26;162.18;;;108.13;;
53879;SDS011;39791;53.184;5.486;2024-03-22T03:58:51;153.10;;;94.97;;
53879;SDS011;39791;53.184;5.486;2024-03-22T04:01:18;144.05;;;94.88;;
53879;SDS011;39791;53.184;5.486;2024-03-22T04:03:44;149.27;;;95.13;;
53879;SDS011;39791;53.184;5.486;2024-03-22T04:06:13;154.85;;;97.88;;
53879;SDS011;39791;53.184;5.486;2024-03-22T04:08:42;143.57;;;91.72;;
53879;SDS011;39791;53.184;5.486;2024-03-22T04:11:09;146.55;;;90.35;;
53879;SDS011;39791;53.184;5.486;2024-03-22T04:13:35;137.90;;;87.95;;
53879;SDS011;39791;53.184;5.486;2024-03-22T04:16:01;141.30;;;96.07;;
53879;SDS011;39791;53.184;5.486;2024-03-22T04:18:27;148.43;;;96.13;;
53879;SDS011;39791;53.184;5.486;2024-03-22T04:20:53;145.40;;;99.75;;
53879;SDS011;39791;53.184;5.486;2024-03-22T04:23:20;151.18;;;104.07;;
53879;SDS011;39791;53.184;5.486;2024-03-22T04:25:59;158.15;;;109.15;;
53879;SDS011;39791;53.184;5.486;2024-03-22T04:28:28;150.80;;;104.78;;
53879;SDS011;39791;53.184;5.486;2024-03-22T04:30:58;141.55;;;88.85;;
53879;SDS011;39791;53.184;5.486;2024-03-22T04:33:29;144.80;;;100.22;;
53879;SDS011;39791;53.184;5.486;2024-03-22T04:35:55;139.27;;;95.65;;
53879;SDS011;39791;53.184;5.486;2024-03-22T04:38:22;143.18;;;91.53;;
53879;SDS011;39791;53.184;5.486;2024-03-22T04:40:48;141.77;;;95.30;;
53879;SDS011;39791;53.184;5.486;2024-03-22T04:43:14;130.68;;;93.55;;
53879;SDS011;39791;53.184;5.486;2024-03-22T04:45:43;134.15;;;94.43;;
53879;SDS011;39791;53.184;5.486;2024-03-22T04:48:16;143.65;;;102.20;;
53879;SDS011;39791;53.184;5.486;2024-03-22T04:50:42;139.10;;;89.10;;
53879;SDS011;39791;53.184;5.486;2024-03-22T04:53:08;145.10;;;98.88;;
53879;SDS011;39791;53.184;5.486;2024-03-22T04:55:34;135.40;;;93.53;;
53879;SDS011;39791;53.184;5.486;2024-03-22T04:58:00;126.60;;;84.45;;
53879;SDS011;39791;53.184;5.486;2024-03-22T05:00:26;131.35;;;87.32;;
53879;SDS011;39791;53.184;5.486;2024-03-22T05:02:52;126.68;;;85.72;;
53879;SDS011;39791;53.184;5.486;2024-03-22T05:05:18;129.40;;;80.70;;
53879;SDS011;39791;53.184;5.486;2024-03-22T05:07:44;122.07;;;83.90;;
53879;SDS011;39791;53.184;5.486;2024-03-22T05:10:10;132.23;;;85.82;;
53879;SDS011;39791;53.184;5.486;2024-03-22T05:12:36;121.85;;;81.82;;
53879;SDS011;39791;53.184;5.486;2024-03-22T05:15:02;128.00;;;83.88;;
53879;SDS011;39791;53.184;5.486;2024-03-22T05:17:29;130.98;;;75.32;;
53879;SDS011;39791;53.184;5.486;2024-03-22T05:19:57;121.95;;;79.60;;
53879;SDS011;39791;53.184;5.486;2024-03-22T05:22:23;128.80;;;78.85;;
53879;SDS011;39791;53.184;5.486;2024-03-22T05:24:49;118.65;;;77.05;;
53879;SDS011;39791;53.184;5.486;2024-03-22T05:27:15;117.68;;;78.93;;
53879;SDS011;39791;53.184;5.486;2024-03-22T05:29:41;127.97;;;79.20;;
53879;SDS011;39791;53.184;5.486;2024-03-22T05:32:06;117.03;;;80.47;;
53879;SDS011;39791;53.184;5.486;2024-03-22T05:34:32;121.82;;;77.43;;
53879;SDS011;39791;53.184;5.486;2024-03-22T05:36:58;117.68;;;76.95;;
53879;SDS011;39791;53.184;5.486;2024-03-22T05:39:24;114.22;;;82.57;;
53879;SDS011;39791;53.184;5.486;2024-03-22T05:41:50;116.00;;;80.43;;
53879;SDS011;39791;53.184;5.486;2024-03-22T05:44:16;116.40;;;83.07;;
53879;SDS011;39791;53.184;5.486;2024-03-22T05:46:41;115.60;;;83.40;;
53879;SDS011;39791;53.184;5.486;2024-03-22T05:49:07;113.15;;;78.53;;
53879;SDS011;39791;53.184;5.486;2024-03-22T05:51:33;123.90;;;85.20;;
53879;SDS011;39791;53.184;5.486;2024-03-22T05:53:59;121.25;;;84.63;;
53879;SDS011;39791;53.184;5.486;2024-03-22T05:56:25;120.82;;;85.38;;
53879;SDS011;39791;53.184;5.486;2024-03-22T05:58:50;115.65;;;82.40;;
53879;SDS011;39791;53.184;5.486;2024-03-22T06:01:16;120.85;;;83.60;;
53879;SDS011;39791;53.184;5.486;2024-03-22T06:03:42;116.93;;;82.53;;
53879;SDS011;39791;53.184;5.486;2024-03-22T06:06:08;124.30;;;88.35;;
53879;SDS011;39791;53.184;5.486;2024-03-22T06:08:34;129.00;;;85.20;;
53879;SDS011;39791;53.184;5.486;2024-03-22T06:11:00;121.57;;;80.25;;
53879;SDS011;39791;53.184;5.486;2024-03-22T06:13:26;132.45;;;85.85;;
53879;SDS011;39791;53.184;5.486;2024-03-22T06:15:52;130.98;;;84.32;;
53879;SDS011;39791;53.184;5.486;2024-03-22T06:18:18;126.15;;;80.88;;
53879;SDS011;39791;53.184;5.486;2024-03-22T06:20:43;127.47;;;80.35;;
53879;SDS011;39791;53.184;5.486;2024-03-22T06:23:09;134.20;;;81.72;;
53879;SDS011;39791;53.184;5.486;2024-03-22T06:25:35;133.40;;;82.05;;
53879;SDS011;39791;53.184;5.486;2024-03-22T06:28:01;126.90;;;81.63;;
53879;SDS011;39791;53.184;5.486;2024-03-22T06:30:27;133.32;;;82.40;;
53879;SDS011;39791;53.184;5.486;2024-03-22T06:32:54;134.25;;;84.95;;
53879;SDS011;39791;53.184;5.486;2024-03-22T06:35:22;143.63;;;85.18;;
53879;SDS011;39791;53.184;5.486;2024-03-22T06:37:48;126.60;;;81.22;;
53879;SDS011;39791;53.184;5.486;2024-03-22T06:40:14;130.95;;;82.18;;
53879;SDS011;39791;53.184;5.486;2024-03-22T06:42:40;126.57;;;82.55;;
53879;SDS011;39791;53.184;5.486;2024-03-22T06:45:06;127.30;;;82.57;;
53879;SDS011;39791;53.184;5.486;2024-03-22T06:47:33;119.28;;;87.38;;
53879;SDS011;39791;53.184;5.486;2024-03-22T06:49:59;112.22;;;83.13;;
53879;SDS011;39791;53.184;5.486;2024-03-22T06:52:24;122.88;;;83.18;;
53879;SDS011;39791;53.184;5.486;2024-03-22T06:54:50;120.57;;;81.85;;
53879;SDS011;39791;53.184;5.486;2024-03-22T06:57:17;118.78;;;83.65;;
53879;SDS011;39791;53.184;5.486;2024-03-22T06:59:42;113.55;;;83.22;;
53879;SDS011;39791;53.184;5.486;2024-03-22T07:02:08;119.72;;;83.82;;
53879;SDS011;39791;53.184;5.486;2024-03-22T07:04:34;116.03;;;82.32;;
53879;SDS011;39791;53.184;5.486;2024-03-22T07:07:00;116.57;;;86.38;;
53879;SDS011;39791;53.184;5.486;2024-03-22T07:09:26;109.38;;;81.68;;
53879;SDS011;39791;53.184;5.486;2024-03-22T07:11:54;116.05;;;86.53;;
53879;SDS011;39791;53.184;5.486;2024-03-22T07:14:20;111.18;;;82.75;;
53879;SDS011;39791;53.184;5.486;2024-03-22T07:16:49;111.72;;;84.47;;
53879;SDS011;39791;53.184;5.486;2024-03-22T07:19:15;104.25;;;82.75;;
53879;SDS011;39791;53.184;5.486;2024-03-22T07:21:41;107.25;;;80.82;;
53879;SDS011;39791;53.184;5.486;2024-03-22T07:24:06;107.10;;;83.68;;
53879;SDS011;39791;53.184;5.486;2024-03-22T07:26:32;111.55;;;85.32;;
53879;SDS011;39791;53.184;5.486;2024-03-22T07:28:58;105.75;;;81.53;;
53879;SDS011;39791;53.184;5.486;2024-03-22T07:31:23;104.35;;;83.20;;
53879;SDS011;39791;53.184;5.486;2024-03-22T07:33:49;100.30;;;78.28;;
53879;SDS011;39791;53.184;5.486;2024-03-22T07:36:15;108.03;;;82.68;;
53879;SDS011;39791;53.184;5.486;2024-03-22T07:38:42;99.72;;;77.22;;
53879;SDS011;39791;53.184;5.486;2024-03-22T07:41:08;102.53;;;78.88;;
53879;SDS011;39791;53.184;5.486;2024-03-22T07:43:33;101.75;;;76.57;;
53879;SDS011;39791;53.184;5.486;2024-03-22T07:45:59;108.03;;;80.78;;
53879;SDS011;39791;53.184;5.486;2024-03-22T07:48:25;112.28;;;80.68;;
53879;SDS011;39791;53.184;5.486;2024-03-22T07:50:57;103.07;;;78.20;;
53879;SDS011;39791;53.184;5.486;2024-03-22T07:53:24;104.30;;;79.38;;
53879;SDS011;39791;53.184;5.486;2024-03-22T07:55:50;108.75;;;80.63;;
53879;SDS011;39791;53.184;5.486;2024-03-22T07:58:15;104.07;;;79.50;;
53879;SDS011;39791;53.184;5.486;2024-03-22T08:00:41;110.55;;;81.30;;
53879;SDS011;39791;53.184;5.486;2024-03-22T08:03:07;100.88;;;77.20;;
53879;SDS011;39791;53.184;5.486;2024-03-22T08:05:38;107.30;;;78.43;;
53879;SDS011;39791;53.184;5.486;2024-03-22T08:08:04;104.32;;;78.07;;
53879;SDS011;39791;53.184;5.486;2024-03-22T08:10:30;108.40;;;84.43;;
53879;SDS011;39791;53.184;5.486;2024-03-22T08:12:56;111.18;;;83.32;;
53879;SDS011;39791;53.184;5.486;2024-03-22T08:15:22;119.00;;;86.28;;
53879;SDS011;39791;53.184;5.486;2024-03-22T08:17:52;116.05;;;85.90;;
53879;SDS011;39791;53.184;5.486;2024-03-22T08:20:18;122.47;;;84.90;;
53879;SDS011;39791;53.184;5.486;2024-03-22T08:22:43;115.03;;;89.97;;
53879;SDS011;39791;53.184;5.486;2024-03-22T08:25:09;118.03;;;83.63;;
53879;SDS011;39791;53.184;5.486;2024-03-22T08:27:35;116.55;;;86.90;;
53879;SDS011;39791;53.184;5.486;2024-03-22T08:30:01;113.03;;;82.03;;
53879;SDS011;39791;53.184;5.486;2024-03-22T08:32:27;122.18;;;90.10;;
53879;SDS011;39791;53.184;5.486;2024-03-22T08:34:54;114.03;;;84.50;;
53879;SDS011;39791;53.184;5.486;2024-03-22T08:37:19;110.10;;;82.03;;
53879;SDS011;39791;53.184;5.486;2024-03-22T08:39:45;117.43;;;85.65;;
53879;SDS011;39791;53.184;5.486;2024-03-22T08:42:11;114.78;;;86.20;;
53879;SDS011;39791;53.184;5.486;2024-03-22T08:44:37;114.05;;;84.93;;
53879;SDS011;39791;53.184;5.486;2024-03-22T08:47:03;109.53;;;86.07;;
53879;SDS011;39791;53.184;5.486;2024-03-22T08:49:28;103.05;;;80.72;;
53879;SDS011;39791;53.184;5.486;2024-03-22T08:52:01;105.50;;;83.80;;
53879;SDS011;39791;53.184;5.486;2024-03-22T08:54:35;106.53;;;77.22;;
53879;SDS011;39791;53.184;5.486;2024-03-22T08:57:01;100.43;;;75.93;;
53879;SDS011;39791;53.184;5.486;2024-03-22T08:59:27;102.97;;;79.93;;
53879;SDS011;39791;53.184;5.486;2024-03-22T09:01:53;104.93;;;81.00;;
53879;SDS011;39791;53.184;5.486;2024-03-22T09:04:19;103.88;;;78.88;;
53879;SDS011;39791;53.184;5.486;2024-03-22T09:06:45;101.63;;;75.15;;
53879;SDS011;39791;53.184;5.486;2024-03-22T09:09:11;103.50;;;81.47;;
53879;SDS011;39791;53.184;5.486;2024-03-22T09:11:38;102.20;;;76.45;;
53879;SDS011;39791;53.184;5.486;2024-03-22T09:14:03;104.18;;;79.78;;
53879;SDS011;39791;53.184;5.486;2024-03-22T09:16:35;101.82;;;78.32;;
53879;SDS011;39791;53.184;5.486;2024-03-22T09:19:04;107.63;;;83.32;;
53879;SDS011;39791;53.184;5.486;2024-03-22T09:21:30;100.90;;;83.18;;
53879;SDS011;39791;53.184;5.486;2024-03-22T09:23:57;108.05;;;85.10;;
53879;SDS011;39791;53.184;5.486;2024-03-22T09:26:23;107.00;;;82.07;;
53879;SDS011;39791;53.184;5.486;2024-03-22T09:28:48;106.07;;;82.70;;
53879;SDS011;39791;53.184;5.486;2024-03-22T09:31:15;110.90;;;77.47;;
53879;SDS011;39791;53.184;5.486;2024-03-22T09:33:42;107.40;;;79.70;;
53879;SDS011;39791;53.184;5.486;2024-03-22T09:36:08;110.82;;;75.82;;
53879;SDS011;39791;53.184;5.486;2024-03-22T09:38:34;110.05;;;79.38;;
53879;SDS011;39791;53.184;5.486;2024-03-22T09:41:00;106.18;;;83.25;;
53879;SDS011;39791;53.184;5.486;2024-03-22T09:43:27;107.22;;;77.25;;
53879;SDS011;39791;53.184;5.486;2024-03-22T09:45:54;112.88;;;82.15;;
53879;SDS011;39791;53.184;5.486;2024-03-22T09:48:20;108.50;;;83.03;;
53879;SDS011;39791;53.184;5.486;2024-03-22T09:50:47;104.40;;;78.03;;
53879;SDS011;39791;53.184;5.486;2024-03-22T09:53:13;96.18;;;79.90;;
53879;SDS011;39791;53.184;5.486;2024-03-22T09:55:43;105.20;;;78.00;;
53879;SDS011;39791;53.184;5.486;2024-03-22T09:58:10;97.65;;;75.63;;
53879;SDS011;39791;53.184;5.486;2024-03-22T10:00:43;93.20;;;75.47;;
53879;SDS011;39791;53.184;5.486;2024-03-22T10:03:12;93.68;;;75.00;;
53879;SDS011;39791;53.184;5.486;2024-03-22T10:05:37;92.68;;;77.68;;
53879;SDS011;39791;53.184;5.486;2024-03-22T10:08:03;89.25;;;70.80;;
53879;SDS011;39791;53.184;5.486;2024-03-22T10:10:32;96.30;;;77.63;;
53879;SDS011;39791;53.184;5.486;2024-03-22T10:13:02;96.85;;;72.40;;
53879;SDS011;39791;53.184;5.486;2024-03-22T10:15:28;92.50;;;69.32;;
53879;SDS011;39791;53.184;5.486;2024-03-22T10:17:56;98.10;;;74.07;;
53879;SDS011;39791;53.184;5.486;2024-03-22T10:20:22;91.68;;;73.43;;
53879;SDS011;39791;53.184;5.486;2024-03-22T10:22:49;90.35;;;72.65;;
53879;SDS011;39791;53.184;5.486;2024-03-22T10:25:21;85.80;;;72.10;;
53879;SDS011;39791;53.184;5.486;2024-03-22T10:27:47;88.90;;;71.82;;
53879;SDS011;39791;53.184;5.486;2024-03-22T10:30:15;88.03;;;71.13;;
53879;SDS011;39791;53.184;5.486;2024-03-22T10:32:42;88.05;;;67.88;;
53879;SDS011;39791;53.184;5.486;2024-03-22T10:35:11;90.45;;;73.22;;
53879;SDS011;39791;53.184;5.486;2024-03-22T10:37:38;93.60;;;69.00;;
53879;SDS011;39791;53.184;5.486;2024-03-22T10:40:05;95.45;;;72.88;;
53879;SDS011;39791;53.184;5.486;2024-03-22T10:42:33;98.20;;;81.72;;
53879;SDS011;39791;53.184;5.486;2024-03-22T10:45:00;97.15;;;83.22;;
53879;SDS011;39791;53.184;5.486;2024-03-22T10:47:29;94.43;;;75.22;;
53879;SDS011;39791;53.184;5.486;2024-03-22T10:50:06;98.75;;;76.97;;
53879;SDS011;39791;53.184;5.486;2024-03-22T10:55:15;99.22;;;70.40;;
53879;SDS011;39791;53.184;5.486;2024-03-22T10:57:59;94.72;;;73.07;;
53879;SDS011;39791;53.184;5.486;2024-03-22T11:00:28;106.13;;;81.60;;
53879;SDS011;39791;53.184;5.486;2024-03-22T11:02:55;102.43;;;84.38;;
53879;SDS011;39791;53.184;5.486;2024-03-22T11:05:21;104.50;;;81.50;;
53879;SDS011;39791;53.184;5.486;2024-03-22T11:07:46;99.20;;;83.03;;
53879;SDS011;39791;53.184;5.486;2024-03-22T11:10:13;98.53;;;76.43;;
53879;SDS011;39791;53.184;5.486;2024-03-22T11:12:39;102.97;;;86.63;;
53879;SDS011;39791;53.184;5.486;2024-03-22T11:15:06;103.35;;;84.78;;
53879;SDS011;39791;53.184;5.486;2024-03-22T11:17:32;101.47;;;84.75;;
53879;SDS011;39791;53.184;5.486;2024-03-22T11:19:58;102.53;;;82.10;;
53879;SDS011;39791;53.184;5.486;2024-03-22T11:22:27;102.22;;;81.13;;
53879;SDS011;39791;53.184;5.486;2024-03-22T11:24:53;109.65;;;87.68;;
53879;SDS011;39791;53.184;5.486;2024-03-22T11:27:18;107.10;;;87.18;;
53879;SDS011;39791;53.184;5.486;2024-03-22T11:29:45;101.15;;;80.18;;
53879;SDS011;39791;53.184;5.486;2024-03-22T11:32:11;101.68;;;84.13;;
53879;SDS011;39791;53.184;5.486;2024-03-22T11:34:39;107.80;;;82.97;;
53879;SDS011;39791;53.184;5.486;2024-03-22T11:37:18;99.20;;;78.07;;
53879;SDS011;39791;53.184;5.486;2024-03-22T11:39:44;110.07;;;81.65;;
53879;SDS011;39791;53.184;5.486;2024-03-22T11:42:09;98.90;;;79.15;;
53879;SDS011;39791;53.184;5.486;2024-03-22T11:44:36;112.03;;;88.45;;
53879;SDS011;39791;53.184;5.486;2024-03-22T11:47:04;113.22;;;84.53;;
53879;SDS011;39791;53.184;5.486;2024-03-22T11:49:30;113.55;;;81.03;;
53879;SDS011;39791;53.184;5.486;2024-03-22T11:51:56;102.10;;;76.25;;
53879;SDS011;39791;53.184;5.486;2024-03-22T11:54:23;105.82;;;78.00;;
53879;SDS011;39791;53.184;5.486;2024-03-22T11:56:49;108.30;;;82.78;;
53879;SDS011;39791;53.184;5.486;2024-03-22T11:59:15;103.32;;;73.05;;
53879;SDS011;39791;53.184;5.486;2024-03-22T12:01:44;102.03;;;76.68;;
53879;SDS011;39791;53.184;5.486;2024-03-22T12:04:10;110.05;;;76.13;;
53879;SDS011;39791;53.184;5.486;2024-03-22T12:06:43;100.20;;;73.45;;
53879;SDS011;39791;53.184;5.486;2024-03-22T12:09:10;103.47;;;75.13;;
53879;SDS011;39791;53.184;5.486;2024-03-22T12:11:38;112.45;;;77.32;;
53879;SDS011;39791;53.184;5.486;2024-03-22T12:14:04;103.07;;;76.55;;
53879;SDS011;39791;53.184;5.486;2024-03-22T12:16:30;99.72;;;73.65;;
53879;SDS011;39791;53.184;5.486;2024-03-22T12:18:56;94.78;;;72.72;;
53879;SDS011;39791;53.184;5.486;2024-03-22T12:21:23;93.13;;;66.80;;
53879;SDS011;39791;53.184;5.486;2024-03-22T12:23:49;88.55;;;66.88;;
53879;SDS011;39791;53.184;5.486;2024-03-22T12:26:15;96.38;;;67.45;;
53879;SDS011;39791;53.184;5.486;2024-03-22T12:28:41;89.65;;;63.38;;
53879;SDS011;39791;53.184;5.486;2024-03-22T12:31:07;83.47;;;58.45;;
53879;SDS011;39791;53.184;5.486;2024-03-22T12:33:33;77.32;;;55.65;;
53879;SDS011;39791;53.184;5.486;2024-03-22T12:35:59;87.07;;;59.78;;
53879;SDS011;39791;53.184;5.486;2024-03-22T12:38:25;84.00;;;59.22;;
53879;SDS011;39791;53.184;5.486;2024-03-22T12:40:51;87.10;;;57.72;;
53879;SDS011;39791;53.184;5.486;2024-03-22T12:43:17;95.55;;;61.90;;
53879;SDS011;39791;53.184;5.486;2024-03-22T12:45:42;86.90;;;58.30;;
53879;SDS011;39791;53.184;5.486;2024-03-22T12:48:08;92.60;;;63.22;;
53879;SDS011;39791;53.184;5.486;2024-03-22T12:50:34;96.18;;;65.82;;
53879;SDS011;39791;53.184;5.486;2024-03-22T12:53:00;102.28;;;67.18;;
53879;SDS011;39791;53.184;5.486;2024-03-22T12:55:26;110.10;;;74.38;;
53879;SDS011;39791;53.184;5.486;2024-03-22T12:57:53;113.57;;;79.63;;
53879;SDS011;39791;53.184;5.486;2024-03-22T13:00:19;114.63;;;78.82;;
53879;SDS011;39791;53.184;5.486;2024-03-22T13:02:45;111.10;;;77.10;;
53879;SDS011;39791;53.184;5.486;2024-03-22T13:05:11;121.20;;;82.70;;
53879;SDS011;39791;53.184;5.486;2024-03-22T13:07:38;115.20;;;80.45;;
53879;SDS011;39791;53.184;5.486;2024-03-22T13:10:04;107.10;;;74.28;;
53879;SDS011;39791;53.184;5.486;2024-03-22T13:12:30;110.72;;;77.78;;
53879;SDS011;39791;53.184;5.486;2024-03-22T13:14:59;108.00;;;79.63;;
53879;SDS011;39791;53.184;5.486;2024-03-22T13:17:28;104.88;;;73.80;;
53879;SDS011;39791;53.184;5.486;2024-03-22T13:19:59;108.90;;;76.35;;
53879;SDS011;39791;53.184;5.486;2024-03-22T13:22:25;109.28;;;71.90;;
53879;SDS011;39791;53.184;5.486;2024-03-22T13:24:51;105.13;;;73.03;;
53879;SDS011;39791;53.184;5.486;2024-03-22T13:27:16;97.00;;;66.65;;
53879;SDS011;39791;53.184;5.486;2024-03-22T13:29:42;91.95;;;61.30;;
53879;SDS011;39791;53.184;5.486;2024-03-22T13:32:08;91.85;;;58.42;;
53879;SDS011;39791;53.184;5.486;2024-03-22T13:34:41;77.28;;;54.38;;
53879;SDS011;39791;53.184;5.486;2024-03-22T13:37:08;96.60;;;64.32;;
53879;SDS011;39791;53.184;5.486;2024-03-22T13:39:34;99.65;;;63.00;;
53879;SDS011;39791;53.184;5.486;2024-03-22T13:42:00;85.20;;;59.45;;
53879;SDS011;39791;53.184;5.486;2024-03-22T13:44:27;84.05;;;56.05;;
53879;SDS011;39791;53.184;5.486;2024-03-22T13:50:27;89.43;;;58.28;;
53879;SDS011;39791;53.184;5.486;2024-03-22T13:52:53;94.10;;;63.22;;
53879;SDS011;39791;53.184;5.486;2024-03-22T13:55:19;84.97;;;55.75;;
53879;SDS011;39791;53.184;5.486;2024-03-22T13:57:46;102.05;;;63.85;;
53879;SDS011;39791;53.184;5.486;2024-03-22T14:00:15;91.63;;;59.17;;
53879;SDS011;39791;53.184;5.486;2024-03-22T14:02:41;97.18;;;63.13;;
53879;SDS011;39791;53.184;5.486;2024-03-22T14:05:07;94.90;;;61.25;;
53879;SDS011;39791;53.184;5.486;2024-03-22T14:07:33;78.55;;;53.03;;
53879;SDS011;39791;53.184;5.486;2024-03-22T14:09:59;89.45;;;55.42;;
53879;SDS011;39791;53.184;5.486;2024-03-22T14:12:25;79.40;;;53.47;;